Time;durP1;ratioP1;P1;durP2;ratioP2;P2;SDS_P1;SDS_P2;PMS_P1;PMS_P2;Temp;Humidity;BMP_temperature;BMP_pressure;BME280_temperature;BME280_humidity;BME280_pressure;Samples;Min_cycle;Max_cycle;Signal;HPM_P1;HPM_P2
2021/07/23 00:01:51;;;;;;;3.33;2.60;;;16.70;67.00;;;;;;4990928;28;20033;-80
2021/07/23 00:04:16;;;;;;;3.83;2.75;;;16.70;67.10;;;;;;4989850;28;20109;-79
2021/07/23 00:06:42;;;;;;;3.63;2.70;;;16.70;67.10;;;;;;4988714;28;20126;-79
2021/07/23 00:09:07;;;;;;;2.85;2.38;;;16.60;67.30;;;;;;4989368;28;20519;-78
2021/07/23 00:11:34;;;;;;;3.78;2.38;;;16.60;67.30;;;;;;4989588;28;20026;-78
2021/07/23 00:13:59;;;;;;;3.55;2.65;;;16.60;67.40;;;;;;4986059;28;20049;-79
2021/07/23 00:16:25;;;;;;;3.53;2.67;;;16.60;67.40;;;;;;4991235;28;20121;-80
2021/07/23 00:18:50;;;;;;;3.70;2.45;;;16.60;67.50;;;;;;4993169;28;20022;-80
2021/07/23 00:21:16;;;;;;;3.55;2.53;;;16.60;67.50;;;;;;4992855;28;20074;-80
2021/07/23 00:23:41;;;;;;;3.13;2.40;;;16.50;67.70;;;;;;4990775;28;20077;-79
2021/07/23 00:26:11;;;;;;;3.10;2.33;;;16.50;67.80;;;;;;4989694;28;20121;-80
2021/07/23 00:28:37;;;;;;;2.88;2.55;;;16.50;67.90;;;;;;4987573;28;20541;-80
2021/07/23 00:31:02;;;;;;;2.45;2.15;;;16.50;68.00;;;;;;4989628;28;20118;-78
2021/07/23 00:33:28;;;;;;;3.25;2.40;;;16.50;68.00;;;;;;5007626;28;20547;-79
2021/07/23 00:35:53;;;;;;;3.50;2.55;;;16.50;68.10;;;;;;4991041;28;20400;-80
2021/07/23 00:38:19;;;;;;;4.05;2.70;;;16.50;68.00;;;;;;4988395;28;20503;-79
2021/07/23 00:40:45;;;;;;;3.78;2.33;;;16.50;68.20;;;;;;4990803;28;20042;-77
2021/07/23 00:43:10;;;;;;;2.75;2.50;;;16.50;68.10;;;;;;4990021;28;20026;-78
2021/07/23 00:45:36;;;;;;;3.00;2.50;;;16.40;68.80;;;;;;4990481;28;20030;-79
2021/07/23 00:48:01;;;;;;;3.80;2.85;;;16.40;68.10;;;;;;4991848;28;20032;-78
2021/07/23 00:50:30;;;;;;;3.17;2.30;;;16.40;68.40;;;;;;4991953;28;20436;-79
2021/07/23 00:52:56;;;;;;;3.00;2.30;;;16.40;68.30;;;;;;4990681;28;20493;-79
2021/07/23 00:55:22;;;;;;;4.35;2.67;;;16.40;68.20;;;;;;4992003;28;20493;-79
2021/07/23 00:57:47;;;;;;;3.95;3.00;;;16.40;68.30;;;;;;4984458;28;20162;-79
2021/07/23 01:00:13;;;;;;;3.40;2.53;;;16.40;68.40;;;;;;4989328;28;20054;-79
2021/07/23 01:02:39;;;;;;;3.20;2.58;;;16.30;68.50;;;;;;4991827;28;20068;-79
2021/07/23 01:05:05;;;;;;;4.05;2.70;;;16.30;68.60;;;;;;4990355;28;20509;-77
2021/07/23 01:07:31;;;;;;;3.22;2.40;;;16.30;68.60;;;;;;4990040;28;20465;-80
2021/07/23 01:10:00;;;;;;;2.90;2.60;;;16.30;68.60;;;;;;4991059;28;20025;-78
2021/07/23 01:12:26;;;;;;;3.20;2.70;;;16.30;68.60;;;;;;5002849;28;20025;-78
2021/07/23 01:14:51;;;;;;;4.40;2.70;;;16.30;68.70;;;;;;4987546;28;20034;-79
2021/07/23 01:17:17;;;;;;;3.67;2.55;;;16.30;68.60;;;;;;4991748;28;20022;-78
2021/07/23 01:19:51;;;;;;;3.67;2.58;;;16.30;68.80;;;;;;4992328;28;20174;-78
2021/07/23 01:22:19;;;;;;;4.28;2.65;;;16.20;68.80;;;;;;4990702;28;20034;-77
2021/07/23 01:24:46;;;;;;;2.97;2.67;;;16.20;68.90;;;;;;4992369;28;20023;-78
2021/07/23 01:27:12;;;;;;;3.38;2.55;;;16.20;69.00;;;;;;4988303;28;20031;-79
2021/07/23 01:29:37;;;;;;;3.00;2.20;;;16.10;68.90;;;;;;4982881;28;20561;-79
2021/07/23 01:32:03;;;;;;;2.85;2.50;;;16.10;68.90;;;;;;4991824;28;20030;-79
2021/07/23 01:34:29;;;;;;;2.78;2.50;;;16.10;68.90;;;;;;4991690;28;20117;-78
2021/07/23 01:36:54;;;;;;;3.70;3.20;;;16.10;69.00;;;;;;4992090;28;20113;-79
2021/07/23 01:39:20;;;;;;;4.47;3.08;;;16.00;69.10;;;;;;4991483;28;22004;-79
2021/07/23 01:41:47;;;;;;;4.53;3.13;;;16.00;69.30;;;;;;5006973;28;20027;-79
2021/07/23 01:44:13;;;;;;;5.00;3.03;;;16.00;69.50;;;;;;4989122;28;20080;-79
2021/07/23 01:46:39;;;;;;;3.92;3.17;;;15.90;69.60;;;;;;4988943;28;20023;-79
2021/07/23 01:49:04;;;;;;;3.40;3.00;;;15.90;69.70;;;;;;4986454;28;20429;-79
2021/07/23 01:51:30;;;;;;;4.15;2.83;;;15.90;69.80;;;;;;4990056;28;20089;-79
2021/07/23 01:53:55;;;;;;;4.32;3.10;;;15.80;69.70;;;;;;4990363;28;20046;-79
2021/07/23 01:56:21;;;;;;;3.58;3.10;;;15.80;69.90;;;;;;4989325;28;20034;-78
2021/07/23 01:58:46;;;;;;;4.85;3.20;;;15.80;69.90;;;;;;4988178;28;20033;-78
2021/07/23 02:01:12;;;;;;;3.65;2.50;;;15.80;70.00;;;;;;4981887;28;20105;-79
2021/07/23 02:03:37;;;;;;;4.05;2.70;;;15.80;70.60;;;;;;4985227;28;20548;-78
2021/07/23 02:06:03;;;;;;;4.25;2.90;;;15.80;69.90;;;;;;4975889;28;20038;-79
2021/07/23 02:08:28;;;;;;;4.50;3.30;;;15.80;69.90;;;;;;4991020;28;20022;-79
2021/07/23 02:10:54;;;;;;;3.05;2.58;;;15.80;69.90;;;;;;4987084;28;20113;-78
2021/07/23 02:13:19;;;;;;;3.78;2.80;;;15.80;70.00;;;;;;4990916;28;20114;-78
2021/07/23 02:15:45;;;;;;;3.83;2.85;;;15.80;69.90;;;;;;4988879;28;20133;-78
2021/07/23 02:18:10;;;;;;;3.60;2.97;;;15.80;69.90;;;;;;4991430;28;20068;-79
2021/07/23 02:20:37;;;;;;;3.58;2.72;;;15.80;69.80;;;;;;4989629;28;20114;-78
2021/07/23 02:23:03;;;;;;;2.72;2.25;;;15.80;69.90;;;;;;4990634;28;20031;-79
2021/07/23 02:25:30;;;;;;;3.85;3.13;;;15.80;69.80;;;;;;4990248;28;20078;-78
2021/07/23 02:27:56;;;;;;;3.33;2.90;;;15.80;70.00;;;;;;4985181;28;20023;-79
2021/07/23 02:30:22;;;;;;;4.50;3.05;;;15.70;70.00;;;;;;4984243;28;20031;-80
2021/07/23 02:32:47;;;;;;;3.65;2.78;;;15.70;70.20;;;;;;4989747;28;20169;-79
2021/07/23 02:35:13;;;;;;;3.90;3.13;;;15.70;70.20;;;;;;4989134;28;20519;-79
2021/07/23 02:37:38;;;;;;;3.83;2.92;;;15.60;70.20;;;;;;4989542;28;20081;-79
2021/07/23 02:40:05;;;;;;;3.20;2.90;;;15.70;70.30;;;;;;4987555;28;20030;-79
2021/07/23 02:42:31;;;;;;;4.03;3.47;;;15.70;70.30;;;;;;4988452;28;20692;-78
2021/07/23 02:44:56;;;;;;;5.13;3.25;;;15.60;70.30;;;;;;4990082;28;20034;-79
2021/07/23 02:47:22;;;;;;;3.10;2.65;;;15.60;70.50;;;;;;4990345;28;20397;-79
2021/07/23 02:49:47;;;;;;;4.00;3.30;;;15.50;70.50;;;;;;4985447;28;20046;-79
2021/07/23 02:52:13;;;;;;;4.88;3.30;;;15.50;70.60;;;;;;4987109;28;20083;-79
2021/07/23 02:54:38;;;;;;;3.30;2.45;;;15.40;70.60;;;;;;4979502;28;20038;-79
2021/07/23 02:57:04;;;;;;;3.97;2.92;;;15.40;70.60;;;;;;4989853;28;20030;-79
2021/07/23 02:59:29;;;;;;;9.15;7.55;;;15.40;70.60;;;;;;4988610;28;20388;-80
2021/07/23 03:01:55;;;;;;;5.88;4.38;;;15.40;70.70;;;;;;4988847;28;20034;-80
2021/07/23 03:04:20;;;;;;;4.72;3.55;;;15.30;70.80;;;;;;4993674;28;20084;-79
2021/07/23 03:06:46;;;;;;;4.10;3.22;;;15.30;70.90;;;;;;4990854;28;20503;-80
2021/07/23 03:09:11;;;;;;;3.75;2.95;;;15.30;70.90;;;;;;4990546;28;20046;-79
2021/07/23 03:11:37;;;;;;;4.68;3.33;;;15.30;70.80;;;;;;4997042;28;20018;-79
2021/07/23 03:14:02;;;;;;;3.75;2.80;;;15.30;70.80;;;;;;4990460;28;20054;-81
2021/07/23 03:16:28;;;;;;;3.50;2.75;;;15.30;70.80;;;;;;4993499;28;20026;-81
2021/07/23 03:18:53;;;;;;;4.53;2.95;;;15.30;70.80;;;;;;4993214;28;20062;-79
2021/07/23 03:21:21;;;;;;;4.88;3.40;;;15.30;70.80;;;;;;4991895;28;20030;-79
2021/07/23 03:23:47;;;;;;;4.75;3.28;;;15.40;70.80;;;;;;4989069;28;20039;-80
2021/07/23 03:26:12;;;;;;;3.25;2.75;;;15.30;70.70;;;;;;4988782;28;20053;-80
2021/07/23 03:28:38;;;;;;;3.90;3.17;;;15.30;70.70;;;;;;4989718;28;20038;-80
2021/07/23 03:31:03;;;;;;;3.47;3.00;;;15.40;70.90;;;;;;4991200;28;20477;-79
2021/07/23 03:33:29;;;;;;;4.00;2.80;;;15.40;70.90;;;;;;4997798;28;20033;-79
2021/07/23 03:35:55;;;;;;;4.32;2.97;;;15.40;70.70;;;;;;4994226;28;20030;-79
2021/07/23 03:38:20;;;;;;;4.28;3.28;;;15.40;70.70;;;;;;4993036;28;20029;-79
2021/07/23 03:40:46;;;;;;;3.90;3.00;;;15.40;70.80;;;;;;4993171;28;20033;-78
2021/07/23 03:43:11;;;;;;;4.95;2.90;;;15.40;70.70;;;;;;4990917;28;20101;-78
2021/07/23 03:45:37;;;;;;;3.40;2.92;;;15.30;70.70;;;;;;4991162;28;20022;-78
2021/07/23 03:48:02;;;;;;;3.80;2.70;;;15.30;70.70;;;;;;4991993;28;20043;-78
2021/07/23 03:50:28;;;;;;;4.38;3.13;;;15.30;70.70;;;;;;4992146;28;20101;-79
2021/07/23 03:52:54;;;;;;;4.07;3.50;;;15.30;70.80;;;;;;4993011;28;20077;-79
2021/07/23 03:55:20;;;;;;;5.05;3.15;;;15.20;70.80;;;;;;4992324;28;20038;-78
2021/07/23 03:57:45;;;;;;;3.88;2.97;;;15.30;71.00;;;;;;4993042;28;20520;-77
2021/07/23 04:00:11;;;;;;;4.97;3.58;;;15.30;71.00;;;;;;4992271;28;20022;-77
2021/07/23 04:02:37;;;;;;;4.90;3.60;;;15.20;71.10;;;;;;4992387;28;20121;-78
2021/07/23 04:05:04;;;;;;;3.95;3.17;;;15.20;71.20;;;;;;4991027;28;20090;-80
2021/07/23 04:07:32;;;;;;;3.47;2.80;;;15.20;71.20;;;;;;4995348;28;20045;-78
2021/07/23 04:09:59;;;;;;;4.72;3.63;;;15.20;71.20;;;;;;4991955;28;20030;-78
2021/07/23 04:12:24;;;;;;;3.92;3.03;;;15.20;71.30;;;;;;4989845;28;20027;-78
2021/07/23 04:14:50;;;;;;;3.67;3.00;;;15.20;71.30;;;;;;4993717;28;20081;-80
2021/07/23 04:17:16;;;;;;;3.47;3.10;;;15.20;71.30;;;;;;4983851;28;20037;-78
2021/07/23 04:19:41;;;;;;;4.35;3.33;;;15.20;71.40;;;;;;4993890;28;20029;-78
2021/07/23 04:22:07;;;;;;;4.47;2.90;;;15.20;71.40;;;;;;4991750;28;20034;-79
2021/07/23 04:24:32;;;;;;;3.78;2.97;;;15.20;71.40;;;;;;4992804;28;20027;-78
2021/07/23 04:26:58;;;;;;;4.90;3.35;;;15.20;71.50;;;;;;4986708;28;20027;-79
2021/07/23 04:29:24;;;;;;;4.30;3.00;;;15.20;71.50;;;;;;4988233;28;20492;-78
2021/07/23 04:31:50;;;;;;;3.20;2.65;;;15.20;71.50;;;;;;4991594;28;20030;-78
2021/07/23 04:34:15;;;;;;;4.18;3.25;;;15.20;71.30;;;;;;4987771;28;20053;-79
2021/07/23 04:36:41;;;;;;;4.22;3.40;;;15.20;71.30;;;;;;4988713;28;20023;-79
2021/07/23 04:39:06;;;;;;;4.07;3.10;;;15.30;71.40;;;;;;4986601;28;20117;-78
2021/07/23 04:41:32;;;;;;;4.22;3.35;;;15.30;71.30;;;;;;4989096;28;20022;-81
2021/07/23 04:43:57;;;;;;;3.67;2.78;;;15.30;71.30;;;;;;4987171;28;20030;-79
2021/07/23 04:46:23;;;;;;;3.78;3.13;;;15.40;71.30;;;;;;4992514;28;20064;-78
2021/07/23 04:48:49;;;;;;;4.80;3.20;;;15.40;71.10;;;;;;4989927;28;20084;-79
2021/07/23 04:51:14;;;;;;;4.95;3.10;;;15.50;71.10;;;;;;4991142;28;20385;-77
2021/07/23 04:53:40;;;;;;;3.90;3.30;;;15.60;71.10;;;;;;5004811;28;20034;-78
2021/07/23 04:56:07;;;;;;;3.88;3.00;;;15.60;71.00;;;;;;4996991;28;20038;-78
2021/07/23 04:58:33;;;;;;;4.18;2.88;;;15.70;70.90;;;;;;4991939;28;20033;-78
2021/07/23 05:00:59;;;;;;;5.18;2.88;;;15.70;70.80;;;;;;4988157;28;20181;-81
2021/07/23 05:03:29;;;;;;;4.78;3.42;;;15.80;70.70;;;;;;4994012;28;20101;-80
2021/07/23 05:05:57;;;;;;;3.55;2.85;;;15.90;70.70;;;;;;4992455;28;20031;-80
2021/07/23 05:08:23;;;;;;;4.65;3.10;;;15.90;70.50;;;;;;4995217;28;20030;-79
2021/07/23 05:10:48;;;;;;;3.42;2.47;;;16.00;70.40;;;;;;4990074;28;20042;-78
2021/07/23 05:13:14;;;;;;;3.60;2.65;;;16.20;70.40;;;;;;4998558;28;20049;-78
2021/07/23 05:15:40;;;;;;;3.05;2.45;;;17.00;69.40;;;;;;4993627;28;20097;-78
2021/07/23 05:18:07;;;;;;;3.72;2.40;;;17.80;67.30;;;;;;4992046;28;20105;-79
2021/07/23 05:20:32;;;;;;;3.30;2.00;;;18.70;65.10;;;;;;4990295;28;20038;-80
2021/07/23 05:22:58;;;;;;;3.80;2.22;;;19.40;63.20;;;;;;4991030;28;20026;-78
2021/07/23 05:25:24;;;;;;;3.25;2.22;;;20.10;61.40;;;;;;4990868;28;20030;-79
2021/07/23 05:27:49;;;;;;;2.90;2.40;;;20.70;59.80;;;;;;4991138;28;20461;-78
2021/07/23 05:30:15;;;;;;;2.65;2.17;;;21.20;58.60;;;;;;4991660;28;20746;-78
2021/07/23 05:32:41;;;;;;;3.03;1.95;;;21.70;57.50;;;;;;4988200;28;20038;-80
2021/07/23 05:35:07;;;;;;;4.35;2.40;;;22.10;56.50;;;;;;4990538;28;20049;-77
2021/07/23 05:37:33;;;;;;;2.72;2.22;;;22.60;55.60;;;;;;4991217;28;20089;-75
2021/07/23 05:39:59;;;;;;;2.65;1.80;;;22.90;54.70;;;;;;4987750;28;20031;-76
2021/07/23 05:42:25;;;;;;;4.00;2.65;;;23.20;54.00;;;;;;4990624;28;20029;-78
2021/07/23 05:44:50;;;;;;;3.83;2.60;;;23.20;53.00;;;;;;4990689;28;20034;-77
2021/07/23 05:47:15;;;;;;;4.85;2.05;;;23.20;53.40;;;;;;4985902;28;20050;-76
2021/07/23 05:49:41;;;;;;;3.63;2.47;;;23.40;53.10;;;;;;4990372;28;20539;-77
2021/07/23 05:52:06;;;;;;;3.03;2.15;;;23.20;52.70;;;;;;4990582;28;20034;-77
2021/07/23 05:54:32;;;;;;;2.88;1.83;;;23.30;52.90;;;;;;4990545;28;20125;-76
2021/07/23 05:56:58;;;;;;;4.38;2.10;;;23.70;52.90;;;;;;4992745;28;20161;-77
2021/07/23 05:59:23;;;;;;;2.15;1.77;;;24.00;52.30;;;;;;4993031;28;20038;-76
2021/07/23 06:01:49;;;;;;;2.22;1.77;;;24.30;51.60;;;;;;4987701;28;20436;-76
2021/07/23 06:04:14;;;;;;;1.92;1.73;;;24.60;51.10;;;;;;4987982;28;20038;-76
2021/07/23 06:06:40;;;;;;;2.65;1.58;;;25.00;50.40;;;;;;4990297;28;20019;-77
2021/07/23 06:09:05;;;;;;;2.35;1.73;;;25.30;49.80;;;;;;4986420;28;20501;-87
2021/07/23 06:11:33;;;;;;;1.98;1.50;;;25.50;49.20;;;;;;4984332;28;20034;-76
2021/07/23 06:13:59;;;;;;;1.63;1.30;;;25.70;48.80;;;;;;4989733;28;20026;-76
2021/07/23 06:16:24;;;;;;;3.55;1.58;;;26.00;48.40;;;;;;4991183;28;20146;-76
2021/07/23 06:18:50;;;;;;;1.15;1.05;;;26.10;47.70;;;;;;4990973;28;20042;-76
2021/07/23 06:21:15;;;;;;;2.28;1.40;;;26.20;47.60;;;;;;4991190;28;20089;-76
2021/07/23 06:23:41;;;;;;;1.67;1.13;;;26.20;47.40;;;;;;4990713;28;20057;-76
2021/07/23 06:26:06;;;;;;;1.85;1.48;;;26.20;47.40;;;;;;4990692;28;20031;-76
2021/07/23 06:28:33;;;;;;;2.08;1.30;;;26.20;47.30;;;;;;4981116;28;20497;-75
2021/07/23 06:31:00;;;;;;;2.75;1.50;;;26.00;47.80;;;;;;4990022;28;20711;-76
2021/07/23 06:33:25;;;;;;;2.42;1.60;;;25.60;48.30;;;;;;4990654;28;20073;-75
2021/07/23 06:35:51;;;;;;;1.83;1.70;;;25.40;49.00;;;;;;4990333;28;20030;-78
2021/07/23 06:38:16;;;;;;;1.73;1.63;;;25.10;49.40;;;;;;4989295;28;20113;-75
2021/07/23 06:40:42;;;;;;;2.47;1.50;;;24.50;50.40;;;;;;4984525;28;20073;-77
2021/07/23 06:43:07;;;;;;;3.15;1.90;;;24.00;51.50;;;;;;4989772;28;20029;-75
2021/07/23 06:45:33;;;;;;;3.28;2.15;;;23.40;52.70;;;;;;4988485;28;20057;-75
2021/07/23 06:47:58;;;;;;;2.78;2.20;;;22.70;54.10;;;;;;4990893;28;20043;-75
2021/07/23 06:50:24;;;;;;;3.53;2.20;;;22.20;55.30;;;;;;4989806;28;20492;-74
2021/07/23 06:52:49;;;;;;;2.25;1.67;;;21.70;56.30;;;;;;4987362;28;20027;-74
2021/07/23 06:55:15;;;;;;;2.25;1.70;;;21.40;57.20;;;;;;4988512;28;20042;-76
2021/07/23 06:57:40;;;;;;;2.22;2.03;;;21.20;58.00;;;;;;4988059;28;20595;-76
2021/07/23 07:00:07;;;;;;;2.45;1.98;;;21.00;58.50;;;;;;4989379;28;20049;-74
2021/07/23 07:02:32;;;;;;;2.00;1.80;;;20.80;58.70;;;;;;4990112;28;20377;-74
2021/07/23 07:04:58;;;;;;;2.83;2.00;;;20.50;59.10;;;;;;4988699;28;20031;-74
2021/07/23 07:07:24;;;;;;;1.58;1.48;;;20.40;59.40;;;;;;4989792;28;20101;-77
2021/07/23 07:09:49;;;;;;;2.42;1.45;;;20.30;59.60;;;;;;4990155;28;20034;-74
2021/07/23 07:12:15;;;;;;;2.00;1.73;;;20.20;59.70;;;;;;4988839;28;20030;-75
2021/07/23 07:14:40;;;;;;;1.70;1.50;;;20.30;59.80;;;;;;4985377;28;20034;-74
2021/07/23 07:17:06;;;;;;;2.28;1.63;;;20.30;59.80;;;;;;4987743;28;20124;-75
2021/07/23 07:19:31;;;;;;;1.70;1.40;;;20.30;59.70;;;;;;4990744;28;20030;-74
2021/07/23 07:21:57;;;;;;;1.50;1.20;;;20.30;59.70;;;;;;4990324;28;20068;-75
2021/07/23 07:24:22;;;;;;;2.17;1.80;;;20.30;59.50;;;;;;4990508;28;20558;-74
2021/07/23 07:26:49;;;;;;;2.25;1.73;;;20.20;59.60;;;;;;4990392;28;20022;-74
2021/07/23 07:29:16;;;;;;;1.45;1.30;;;20.20;59.70;;;;;;4990366;28;20065;-76
2021/07/23 07:31:42;;;;;;;2.65;1.60;;;20.10;59.80;;;;;;4988681;28;20125;-76
2021/07/23 07:34:08;;;;;;;2.58;1.55;;;20.20;59.90;;;;;;4990176;28;20040;-77
2021/07/23 07:36:34;;;;;;;2.03;1.27;;;20.10;59.90;;;;;;4990278;28;20113;-77
2021/07/23 07:39:00;;;;;;;2.03;1.83;;;20.10;60.00;;;;;;4985374;28;20127;-77
2021/07/23 07:41:27;;;;;;;2.75;1.77;;;20.00;60.30;;;;;;4983749;28;20778;-77
2021/07/23 07:43:52;;;;;;;3.28;1.88;;;20.10;60.50;;;;;;4988881;28;20034;-76
2021/07/23 07:46:18;;;;;;;2.38;1.65;;;20.20;60.40;;;;;;4993879;28;20031;-79
2021/07/23 07:48:44;;;;;;;2.88;1.55;;;20.30;60.20;;;;;;4994315;28;20057;-77
2021/07/23 07:51:13;;;;;;;2.17;1.60;;;20.50;60.00;;;;;;4993650;28;20409;-77
2021/07/23 07:53:38;;;;;;;2.30;1.60;;;20.60;59.80;;;;;;4994249;28;20084;-76
2021/07/23 07:56:11;;;;;;;2.33;1.60;;;20.60;59.60;;;;;;4993015;28;20038;-75
2021/07/23 07:58:37;;;;;;;1.77;1.50;;;20.70;59.70;;;;;;4994358;28;20022;-78
2021/07/23 08:01:09;;;;;;;1.42;1.20;;;20.80;59.60;;;;;;4993191;28;20100;-77
2021/07/23 08:03:35;;;;;;;2.08;1.55;;;20.90;59.60;;;;;;4994387;28;20105;-78
2021/07/23 08:06:11;;;;;;;1.63;1.50;;;20.90;59.50;;;;;;4992247;28;20082;-77
2021/07/23 08:08:37;;;;;;;1.45;1.30;;;20.90;59.40;;;;;;4992238;28;20677;-77
2021/07/23 08:11:02;;;;;;;2.80;2.00;;;20.90;59.50;;;;;;4992597;28;20037;-76
2021/07/23 08:13:28;;;;;;;3.05;1.60;;;20.60;59.70;;;;;;4989645;28;20507;-76
2021/07/23 08:15:57;;;;;;;2.70;2.03;;;20.60;60.10;;;;;;4980134;28;20074;-77
2021/07/23 08:18:24;;;;;;;1.92;1.50;;;20.60;60.10;;;;;;4993701;28;20019;-76
2021/07/23 08:20:53;;;;;;;3.95;1.63;;;20.70;60.10;;;;;;4993328;28;20026;-75
2021/07/23 08:23:21;;;;;;;3.20;1.60;;;20.70;60.10;;;;;;4992767;28;20026;-76
2021/07/23 08:25:48;;;;;;;4.97;1.75;;;20.70;60.00;;;;;;4993898;28;20031;-76
2021/07/23 08:28:15;;;;;;;2.20;2.00;;;20.80;60.00;;;;;;4993464;28;20038;-75
2021/07/23 08:30:40;;;;;;;1.90;1.50;;;20.70;60.10;;;;;;4993201;28;20109;-74
2021/07/23 08:33:06;;;;;;;2.00;1.60;;;20.80;60.90;;;;;;4992848;28;20121;-75
2021/07/23 08:35:32;;;;;;;2.70;2.00;;;20.80;60.20;;;;;;4993311;28;20126;-75
2021/07/23 08:37:57;;;;;;;2.55;1.92;;;20.70;60.30;;;;;;4993641;28;20049;-75
2021/07/23 08:40:23;;;;;;;2.38;1.80;;;20.70;60.60;;;;;;4993064;28;20030;-74
2021/07/23 08:42:49;;;;;;;2.28;2.05;;;20.70;60.60;;;;;;4987294;28;20019;-76
2021/07/23 08:45:14;;;;;;;2.75;2.05;;;20.70;60.60;;;;;;4989533;28;20022;-76
2021/07/23 08:47:40;;;;;;;4.32;2.20;;;20.60;60.70;;;;;;4990864;28;20031;-75
2021/07/23 08:50:06;;;;;;;2.70;1.95;;;20.60;60.80;;;;;;4990713;28;20049;-74
2021/07/23 08:52:43;;;;;;;2.08;1.67;;;20.70;60.90;;;;;;4989785;28;20018;-74
2021/07/23 08:55:10;;;;;;;2.20;1.70;;;20.70;60.90;;;;;;4989527;28;20049;-75
2021/07/23 08:57:36;;;;;;;2.53;1.88;;;20.80;60.70;;;;;;4988958;28;20109;-75
2021/07/23 09:00:13;;;;;;;3.00;2.22;;;20.80;60.80;;;;;;4992281;28;20119;-75
2021/07/23 09:02:59;;;;;;;3.15;2.38;;;20.70;61.00;;;;;;4985221;28;20076;-74
2021/07/23 09:05:27;;;;;;;3.50;2.17;;;20.70;61.10;;;;;;4980862;28;20537;-77
2021/07/23 09:07:52;;;;;;;3.42;2.45;;;20.70;61.30;;;;;;4984923;28;20034;-76
2021/07/23 09:10:28;;;;;;;5.05;2.97;;;20.70;61.60;;;;;;4985721;28;20023;-75
2021/07/23 09:12:59;;;;;;;3.83;3.00;;;20.70;61.60;;;;;;4981677;28;20027;-78
2021/07/23 09:15:27;;;;;;;4.15;2.92;;;20.50;62.10;;;;;;5004690;28;20696;-76
2021/07/23 09:17:53;;;;;;;3.00;2.47;;;20.40;62.60;;;;;;4977863;28;20030;-76
2021/07/23 09:20:25;;;;;;;3.28;2.58;;;20.40;62.90;;;;;;4977878;28;20022;-75
2021/07/23 09:23:01;;;;;;;2.60;2.17;;;20.50;62.60;;;;;;4984830;28;20022;-75
2021/07/23 09:25:34;;;;;;;3.30;2.28;;;20.70;62.20;;;;;;4982078;28;20018;-74
2021/07/23 09:28:00;;;;;;;4.75;3.00;;;20.80;62.00;;;;;;4983664;28;20513;-75
2021/07/23 09:30:44;;;;;;;3.72;2.80;;;20.80;61.80;;;;;;4981329;28;20113;-75
2021/07/23 09:33:11;;;;;;;3.38;2.45;;;20.70;62.00;;;;;;4986209;28;20029;-76
2021/07/23 09:35:52;;;;;;;2.58;2.15;;;20.80;62.00;;;;;;4982642;28;20530;-75
2021/07/23 09:38:19;;;;;;;4.22;2.80;;;20.90;61.80;;;;;;4980111;28;20018;-76
2021/07/23 09:40:45;;;;;;;5.20;3.30;;;20.90;61.50;;;;;;4983579;28;20062;-75
2021/07/23 09:43:11;;;;;;;2.95;2.45;;;20.50;62.00;;;;;;4983561;28;20058;-75
2021/07/23 09:45:37;;;;;;;4.53;2.97;;;20.50;62.20;;;;;;4980036;28;20019;-77
2021/07/23 09:48:13;;;;;;;3.45;2.55;;;20.60;62.10;;;;;;4980573;28;20458;-78
2021/07/23 09:50:43;;;;;;;3.03;2.30;;;20.50;62.40;;;;;;4986126;28;20124;-77
2021/07/23 09:53:19;;;;;;;4.85;3.20;;;20.60;62.30;;;;;;4979277;28;20022;-77
2021/07/23 09:55:49;;;;;;;3.22;2.25;;;20.60;62.20;;;;;;4979468;28;20030;-76
2021/07/23 09:58:21;;;;;;;3.95;2.88;;;20.60;62.30;;;;;;4981987;28;20432;-76
2021/07/23 10:00:57;;;;;;;2.60;2.17;;;20.60;61.90;;;;;;4985160;28;20030;-76
2021/07/23 10:03:26;;;;;;;4.03;2.50;;;20.40;62.30;;;;;;4976839;28;20030;-76
2021/07/23 10:06:02;;;;;;;2.78;2.17;;;20.40;62.50;;;;;;4981165;28;20121;-76
2021/07/23 10:08:32;;;;;;;3.03;2.30;;;20.60;62.30;;;;;;4984577;28;20022;-77
2021/07/23 10:11:03;;;;;;;4.32;2.30;;;20.80;61.80;;;;;;4984811;28;20038;-78
2021/07/23 10:13:30;;;;;;;3.03;2.00;;;21.00;61.40;;;;;;4982544;28;20023;-78
2021/07/23 10:15:56;;;;;;;3.83;2.70;;;21.20;61.10;;;;;;4974701;28;20749;-77
2021/07/23 10:18:23;;;;;;;3.17;2.47;;;21.10;61.00;;;;;;4980091;28;20073;-75
2021/07/23 10:20:49;;;;;;;3.67;2.17;;;21.30;60.80;;;;;;4980229;28;20054;-76
2021/07/23 10:23:19;;;;;;;2.95;2.17;;;21.40;60.60;;;;;;4981602;28;20031;-75
2021/07/23 10:25:49;;;;;;;4.07;2.33;;;21.40;60.40;;;;;;4980800;28;20034;-77
2021/07/23 10:28:40;;;;;;;4.18;2.70;;;21.20;60.40;;;;;;4982785;28;20043;-75
2021/07/23 10:31:18;;;;;;;4.07;2.15;;;21.10;60.60;;;;;;4986487;28;20029;-75
2021/07/23 10:33:53;;;;;;;2.00;1.70;;;21.20;60.90;;;;;;4982849;28;20034;-76
2021/07/23 10:36:30;;;;;;;2.72;2.15;;;21.40;60.60;;;;;;4987022;28;20036;-75
2021/07/23 10:39:08;;;;;;;2.38;1.55;;;21.60;60.20;;;;;;4982971;28;20044;-76
2021/07/23 10:41:41;;;;;;;2.38;1.88;;;21.80;59.90;;;;;;4985001;28;20092;-77
2021/07/23 10:44:26;;;;;;;2.45;1.90;;;21.80;59.60;;;;;;4986990;28;20509;-76
2021/07/23 10:46:51;;;;;;;2.45;1.83;;;21.80;59.30;;;;;;4991015;28;20034;-77
2021/07/23 10:49:30;;;;;;;2.88;2.13;;;21.90;59.30;;;;;;4981620;28;20061;-76
2021/07/23 10:52:00;;;;;;;3.45;2.50;;;21.70;59.30;;;;;;4982080;28;20572;-78
2021/07/23 10:54:30;;;;;;;2.88;2.38;;;21.70;59.40;;;;;;4982187;28;20393;-77
2021/07/23 10:57:01;;;;;;;3.53;2.00;;;21.70;59.50;;;;;;4986799;28;20037;-75
2021/07/23 10:59:39;;;;;;;1.63;1.53;;;21.70;59.60;;;;;;4982333;28;20714;-74
2021/07/23 11:02:11;;;;;;;3.72;2.40;;;21.70;59.40;;;;;;4982214;28;20035;-76
2021/07/23 11:04:38;;;;;;;2.92;2.40;;;21.60;59.10;;;;;;4980325;28;20039;-75
2021/07/23 11:07:05;;;;;;;2.60;2.30;;;21.60;59.10;;;;;;4985674;28;20041;-76
2021/07/23 11:09:34;;;;;;;2.28;1.65;;;21.60;59.00;;;;;;4991453;28;20041;-75
2021/07/23 11:12:31;;;;;;;2.00;1.80;;;21.70;59.60;;;;;;4981284;28;20031;-75
2021/07/23 11:15:05;;;;;;;3.03;2.10;;;21.80;58.80;;;;;;4985097;28;20041;-76
2021/07/23 11:17:32;;;;;;;2.88;2.10;;;21.80;58.40;;;;;;4983599;28;20027;-75
2021/07/23 11:20:01;;;;;;;2.78;2.20;;;22.00;58.30;;;;;;4985650;28;20058;-76
2021/07/23 11:22:33;;;;;;;2.00;1.80;;;22.30;57.90;;;;;;4992634;28;20054;-78
2021/07/23 11:25:00;;;;;;;2.60;1.87;;;22.40;57.40;;;;;;4987991;28;20034;-76
2021/07/23 11:27:38;;;;;;;3.25;2.03;;;22.70;57.00;;;;;;4990051;28;20030;-76
2021/07/23 11:30:15;;;;;;;3.03;1.88;;;22.80;56.40;;;;;;4986802;28;20037;-75
2021/07/23 11:32:55;;;;;;;2.83;2.10;;;22.90;55.40;;;;;;4983647;28;20046;-74
2021/07/23 11:35:25;;;;;;;3.92;2.80;;;22.80;55.50;;;;;;4986792;28;20038;-74
2021/07/23 11:37:51;;;;;;;2.55;2.10;;;22.70;55.50;;;;;;4999138;28;20033;-75
2021/07/23 11:40:19;;;;;;;3.28;2.45;;;22.70;55.90;;;;;;4986406;28;20390;-75
2021/07/23 11:42:51;;;;;;;2.85;1.90;;;22.60;55.60;;;;;;4987374;28;20101;-77
2021/07/23 11:45:18;;;;;;;3.50;2.50;;;22.70;55.80;;;;;;5000476;28;20045;-76
2021/07/23 11:47:46;;;;;;;5.68;2.30;;;22.60;55.80;;;;;;4985653;28;20058;-76
2021/07/23 11:50:14;;;;;;;3.78;2.20;;;22.60;55.80;;;;;;4988982;28;20034;-76
2021/07/23 11:52:40;;;;;;;2.80;2.08;;;22.80;55.80;;;;;;4990801;28;20062;-75
2021/07/23 11:55:08;;;;;;;2.35;1.80;;;23.00;55.40;;;;;;4988671;28;20034;-75
2021/07/23 11:57:47;;;;;;;2.50;2.10;;;23.10;55.20;;;;;;4986444;28;20011;-77
2021/07/23 12:00:26;;;;;;;2.85;2.05;;;23.20;54.80;;;;;;4989414;28;20134;-76
2021/07/23 12:02:53;;;;;;;2.78;1.90;;;23.30;54.70;;;;;;4989430;28;20045;-76
2021/07/23 12:05:20;;;;;;;3.05;1.92;;;23.30;54.60;;;;;;4981830;28;20054;-75
2021/07/23 12:08:02;;;;;;;3.13;2.13;;;23.40;54.50;;;;;;4990039;28;20081;-78
2021/07/23 12:10:30;;;;;;;3.10;2.78;;;23.30;54.40;;;;;;4994413;28;20021;-77
2021/07/23 12:12:57;;;;;;;2.25;1.73;;;23.30;54.80;;;;;;4986538;28;20019;-77
2021/07/23 12:15:22;;;;;;;4.63;3.20;;;23.40;55.00;;;;;;4997373;28;20404;-79
2021/07/23 12:17:51;;;;;;;4.03;3.15;;;23.30;54.80;;;;;;4984763;28;20023;-78
2021/07/23 12:20:26;;;;;;;5.53;3.63;;;23.00;55.20;;;;;;4986162;28;20045;-76
2021/07/23 12:23:04;;;;;;;4.68;3.00;;;22.50;55.80;;;;;;4983005;28;20114;-78
2021/07/23 12:25:37;;;;;;;3.67;2.70;;;22.40;56.50;;;;;;4995572;28;20026;-76
2021/07/23 12:28:12;;;;;;;2.95;2.45;;;22.60;56.40;;;;;;4989295;28;20488;-77
2021/07/23 12:30:39;;;;;;;3.22;2.45;;;22.80;56.00;;;;;;4987973;28;20109;-78
2021/07/23 12:33:19;;;;;;;4.13;2.90;;;22.90;55.80;;;;;;4992617;28;20030;-78
2021/07/23 12:35:48;;;;;;;2.35;1.98;;;22.90;55.60;;;;;;4994533;28;20088;-79
2021/07/23 12:38:14;;;;;;;5.43;2.72;;;23.00;55.60;;;;;;4987879;28;20516;-78
2021/07/23 12:40:48;;;;;;;4.25;2.97;;;23.00;55.70;;;;;;4987724;28;20034;-76
2021/07/23 12:43:16;;;;;;;2.88;2.42;;;23.10;55.60;;;;;;4988990;28;20017;-78
2021/07/23 12:45:42;;;;;;;4.05;3.05;;;23.20;55.30;;;;;;4993114;28;20081;-76
2021/07/23 12:48:12;;;;;;;4.85;2.95;;;23.30;55.00;;;;;;4988328;28;20022;-76
2021/07/23 12:50:39;;;;;;;4.05;3.10;;;23.30;54.50;;;;;;4992890;28;20022;-75